»·PEaware :: N7GL KBFI-KPDX

N7GL :: KBFI-KPDX

FLIGHT INFORMATION

Flight Status: Arrived
Operator: Privately registered:
United States
More flights under this callsign
Pilot: Georg L. (13308)
Aircraft: BEECH AIRCRAFT SUPER KING AIR 350
(B350)
More flights by this aircraft type
Origin: KBFI Boeing Field/King Co Intl
United States
Destination: KPDX Portland Intl
United States
More flights between these airports :: More routes between these airports
Route: +KENT8 ZIGED BUWZO KRATR2
File this flight plan on PilotEdge
Remarks:
Altitude:
(Current/Filed)
19,000ft
Speed:
(Current/Filed)
299kts
Departed: 01-Nov-20 09:39 AM
Arrived: 01-Nov-20 10:19 AM
Distance/Time
Traveled:
117nm/0:39
Distance/Time
To Go:
Arrived

Flight Plot

Page will automatically refresh every two minutes.

Flight plan parsing failed; only flown route is shown


Map Options




Map Legend


Flown Route
Filed Route
Departure Airport
Arrival Airport
Navaid (VOR, NDB)
Fix

Horizontal Profiles

Position Reports

Time Latitude Longitude Heading Altitude Ground
Speed
01-Nov-20 09:09 47.531074 -122.299439 239 23ft 0kts
01-Nov-20 09:10 47.531074 -122.299439 239 23ft 0kts
01-Nov-20 09:11 47.531074 -122.299439 239 23ft 0kts
01-Nov-20 09:12 47.531074 -122.299439 239 23ft 0kts
01-Nov-20 09:13 47.531074 -122.299439 239 23ft 0kts
01-Nov-20 09:14 47.531074 -122.299439 239 23ft 0kts
01-Nov-20 09:15 47.531074 -122.299439 239 23ft 0kts
01-Nov-20 09:16 47.531074 -122.299439 239 23ft 0kts
01-Nov-20 09:17 47.531074 -122.299439 239 23ft 0kts
01-Nov-20 09:18 47.531074 -122.299439 239 23ft 0kts
01-Nov-20 09:19 47.531074 -122.299439 239 23ft 0kts
01-Nov-20 09:20 47.531074 -122.299439 239 23ft 0kts
01-Nov-20 09:21 47.531074 -122.299439 239 23ft 0kts
01-Nov-20 09:22 47.531074 -122.299439 239 23ft 0kts
01-Nov-20 09:23 47.531074 -122.299439 239 23ft 0kts
01-Nov-20 09:24 47.531074 -122.299439 239 23ft 0kts
01-Nov-20 09:25 47.531074 -122.299439 239 23ft 0kts
01-Nov-20 09:26 47.531074 -122.299439 239 23ft 0kts
01-Nov-20 09:27 47.531074 -122.299439 239 23ft 0kts
01-Nov-20 09:28 47.531074 -122.299439 239 23ft 0kts
01-Nov-20 09:29 47.530950 -122.299753 239 23ft 0kts
01-Nov-20 09:30 47.531051 -122.300401 330 23ft 11kts
01-Nov-20 09:31 47.536164 -122.304928 321 23ft 26kts
01-Nov-20 09:32 47.540980 -122.309791 243 23ft 10kts
01-Nov-20 09:33 47.540800 -122.310219 238 23ft 0kts
01-Nov-20 09:34 47.540798 -122.310223 238 23ft 0kts
01-Nov-20 09:35 47.539967 -122.310905 153 23ft 0kts
01-Nov-20 09:36 47.539967 -122.310905 153 23ft 0kts
01-Nov-20 09:37 47.539967 -122.310905 153 23ft 0kts
01-Nov-20 09:38 47.527638 -122.300809 152 357ft 132kts
01-Nov-20 09:39 47.487581 -122.271978 152 2226ft 184kts
01-Nov-20 09:40 47.435861 -122.230207 174 2857ft 207kts
01-Nov-20 09:41 47.391275 -122.268590 214 4542ft 190kts
01-Nov-20 09:42 47.349305 -122.315064 218 6691ft 191kts
01-Nov-20 09:43 47.306920 -122.361741 218 8733ft 184kts
01-Nov-20 09:44 47.266248 -122.407874 218 10037ft 215kts
01-Nov-20 09:45 47.212362 -122.468590 218 10008ft 263kts
01-Nov-20 09:46 47.149655 -122.524908 179 10292ft 269kts
01-Nov-20 09:47 47.089740 -122.471133 145 11806ft 249kts
01-Nov-20 09:48 47.044433 -122.417703 148 14660ft 195kts
01-Nov-20 09:50 47.001721 -122.367580 148 16466ft 198kts
01-Nov-20 09:51 46.958582 -122.317099 152 18081ft 200kts
01-Nov-20 09:52 46.907069 -122.309391 187 19345ft 202kts
01-Nov-20 09:53 46.842738 -122.309885 185 19335ft 257kts
01-Nov-20 09:54 46.767078 -122.309875 184 19315ft 284kts
01-Nov-20 09:55 46.686410 -122.309894 184 19303ft 293kts
01-Nov-20 09:56 46.604687 -122.309902 184 19300ft 296kts
01-Nov-20 09:57 46.522465 -122.309899 184 19300ft 297kts
01-Nov-20 09:58 46.440819 -122.309897 184 19298ft 291kts
01-Nov-20 09:59 46.360258 -122.309902 184 19299ft 289kts
01-Nov-20 10:00 46.279646 -122.309912 184 18944ft 300kts
01-Nov-20 10:01 46.197944 -122.342010 205 16922ft 310kts
01-Nov-20 10:02 46.119647 -122.386791 203 14580ft 297kts
01-Nov-20 10:03 46.044261 -122.428137 202 12169ft 284kts
01-Nov-20 10:04 45.971992 -122.466937 201 10049ft 273kts
01-Nov-20 10:05 45.903429 -122.479080 169 8770ft 257kts
01-Nov-20 10:06 45.832862 -122.457562 167 6596ft 261kts
01-Nov-20 10:07 45.763934 -122.435807 166 6005ft 256kts
01-Nov-20 10:07 45.705887 -122.417367 166 5999ft 256kts
01-Nov-20 10:09 45.626953 -122.390276 153 5978ft 239kts
01-Nov-20 10:09 45.590638 -122.334289 126 5994ft 231kts
01-Nov-20 10:10 45.553234 -122.259565 126 5990ft 232kts
01-Nov-20 10:11 45.506948 -122.199574 181 5451ft 245kts
01-Nov-20 10:12 45.480507 -122.276179 276 4026ft 250kts
01-Nov-20 10:13 45.502193 -122.359162 300 3859ft 202kts
01-Nov-20 10:14 45.529208 -122.427682 300 2072ft 198kts
01-Nov-20 10:15 45.552217 -122.486635 302 1347ft 164kts
01-Nov-20 10:16 45.570494 -122.533410 302 608ft 114kts
01-Nov-20 10:17 45.584792 -122.569945 300 36ft 95kts
01-Nov-20 10:18 45.588684 -122.582130 208 27ft 12kts
01-Nov-20 10:19 45.588301 -122.582437 210 27ft 8kts
01-Nov-20 10:20 45.586138 -122.578973 123 27ft 15kts
01-Nov-20 10:21 45.585433 -122.578561 117 27ft 0kts
01-Nov-20 10:22 45.585433 -122.578561 117 27ft 0kts
01-Nov-20 10:23 45.585433 -122.578561 117 27ft 0kts

Navigation Log

Ident Type
Flight plan parsing failed, navigation log unavailable